DRRM

Maradi Airport

Maradi, Niger
METAR DRRM 151800Z 08006KT CAVOK 28/04 Q1015
Observed Flight Rules
Dec-15 @ 18:00 UTC (7 hours ago) Visual Flight Rules
Wind Visibility Clouds
80° at 6 knots 10,000+ meters
  • Clear skies
Temperatures Readings
Current 28°C / 82°F
Dewpoint 4°C / 39°F
Humidity 21%
Altimeter 29.97" Hg
Pressure 1015 hPa
Elevation 373
METAR DRRM 151800Z 08006KT CAVOK 28/04 Q1015
Observed Flight Rules
Dec-15 @ 18:00 UTC
(7 hours ago)
VFR
Wind Visibility
80° at 6 knots 10,000+ meters
Clouds
  • Clear skies
Temperature Dewpoint
28°C / 82°F 4°C / 39°F
Humidity Altimeter Pressure
21% 29.97" Hg 1015 hPa